sensor_id;sensor_type;location;lat;lon;timestamp;P1;durP1;ratioP1;P2;durP2;ratioP2
44046;SDS011;29713;-33.888;151.150;2023-05-13T00:02:12;8.60;;;4.80;;
44046;SDS011;29713;-33.888;151.150;2023-05-13T00:04:39;9.00;;;4.10;;
44046;SDS011;29713;-33.888;151.150;2023-05-13T00:07:06;10.05;;;4.60;;
44046;SDS011;29713;-33.888;151.150;2023-05-13T00:09:34;9.52;;;4.45;;
44046;SDS011;29713;-33.888;151.150;2023-05-13T00:12:04;8.85;;;3.75;;
44046;SDS011;29713;-33.888;151.150;2023-05-13T00:14:31;7.05;;;3.63;;
44046;SDS011;29713;-33.888;151.150;2023-05-13T00:16:59;7.13;;;4.07;;
44046;SDS011;29713;-33.888;151.150;2023-05-13T00:19:29;12.07;;;4.65;;
44046;SDS011;29713;-33.888;151.150;2023-05-13T00:22:00;8.95;;;4.28;;
44046;SDS011;29713;-33.888;151.150;2023-05-13T00:24:27;8.55;;;4.55;;
44046;SDS011;29713;-33.888;151.150;2023-05-13T00:26:55;7.10;;;4.40;;
44046;SDS011;29713;-33.888;151.150;2023-05-13T00:29:22;9.13;;;3.40;;
44046;SDS011;29713;-33.888;151.150;2023-05-13T00:31:49;7.72;;;3.40;;
44046;SDS011;29713;-33.888;151.150;2023-05-13T00:34:17;6.30;;;3.10;;
44046;SDS011;29713;-33.888;151.150;2023-05-13T00:36:44;5.15;;;2.85;;
44046;SDS011;29713;-33.888;151.150;2023-05-13T00:39:12;7.30;;;3.58;;
44046;SDS011;29713;-33.888;151.150;2023-05-13T00:41:39;8.38;;;2.88;;
44046;SDS011;29713;-33.888;151.150;2023-05-13T00:44:06;5.45;;;2.60;;
44046;SDS011;29713;-33.888;151.150;2023-05-13T00:46:34;4.43;;;1.77;;
44046;SDS011;29713;-33.888;151.150;2023-05-13T00:49:03;6.55;;;2.10;;
44046;SDS011;29713;-33.888;151.150;2023-05-13T00:51:37;5.88;;;2.20;;
44046;SDS011;29713;-33.888;151.150;2023-05-13T00:54:04;3.97;;;2.15;;
44046;SDS011;29713;-33.888;151.150;2023-05-13T00:56:32;3.70;;;2.15;;
44046;SDS011;29713;-33.888;151.150;2023-05-13T00:58:59;9.98;;;2.53;;
44046;SDS011;29713;-33.888;151.150;2023-05-13T01:04:35;4.60;;;1.73;;
44046;SDS011;29713;-33.888;151.150;2023-05-13T01:10:14;7.35;;;2.40;;
44046;SDS011;29713;-33.888;151.150;2023-05-13T01:12:48;8.60;;;2.03;;
44046;SDS011;29713;-33.888;151.150;2023-05-13T01:15:26;3.60;;;1.80;;
44046;SDS011;29713;-33.888;151.150;2023-05-13T01:18:14;5.70;;;2.05;;
44046;SDS011;29713;-33.888;151.150;2023-05-13T01:20:45;5.78;;;1.70;;
44046;SDS011;29713;-33.888;151.150;2023-05-13T01:23:13;3.53;;;1.70;;
44046;SDS011;29713;-33.888;151.150;2023-05-13T01:25:40;3.03;;;1.70;;
44046;SDS011;29713;-33.888;151.150;2023-05-13T01:28:08;4.45;;;2.17;;
44046;SDS011;29713;-33.888;151.150;2023-05-13T01:30:35;3.47;;;2.22;;
44046;SDS011;29713;-33.888;151.150;2023-05-13T01:33:03;5.40;;;1.88;;
44046;SDS011;29713;-33.888;151.150;2023-05-13T01:35:31;5.40;;;2.20;;
44046;SDS011;29713;-33.888;151.150;2023-05-13T01:37:59;5.13;;;1.65;;
44046;SDS011;29713;-33.888;151.150;2023-05-13T01:40:27;4.55;;;2.00;;
44046;SDS011;29713;-33.888;151.150;2023-05-13T01:42:56;3.53;;;1.70;;
44046;SDS011;29713;-33.888;151.150;2023-05-13T01:45:23;5.43;;;1.95;;
44046;SDS011;29713;-33.888;151.150;2023-05-13T01:47:52;4.45;;;1.73;;
44046;SDS011;29713;-33.888;151.150;2023-05-13T01:50:19;4.75;;;1.70;;
44046;SDS011;29713;-33.888;151.150;2023-05-13T01:52:47;4.22;;;2.00;;
44046;SDS011;29713;-33.888;151.150;2023-05-13T01:55:14;4.75;;;1.80;;
44046;SDS011;29713;-33.888;151.150;2023-05-13T01:57:41;5.78;;;2.05;;
44046;SDS011;29713;-33.888;151.150;2023-05-13T02:00:09;3.80;;;1.90;;
44046;SDS011;29713;-33.888;151.150;2023-05-13T02:02:37;5.43;;;2.03;;
44046;SDS011;29713;-33.888;151.150;2023-05-13T02:05:04;2.85;;;1.60;;
44046;SDS011;29713;-33.888;151.150;2023-05-13T02:07:32;5.13;;;2.00;;
44046;SDS011;29713;-33.888;151.150;2023-05-13T02:10:00;7.65;;;1.90;;
44046;SDS011;29713;-33.888;151.150;2023-05-13T02:12:27;5.38;;;1.90;;
44046;SDS011;29713;-33.888;151.150;2023-05-13T02:14:54;4.70;;;2.00;;
44046;SDS011;29713;-33.888;151.150;2023-05-13T02:17:22;3.03;;;1.77;;
44046;SDS011;29713;-33.888;151.150;2023-05-13T02:19:49;5.20;;;2.30;;
44046;SDS011;29713;-33.888;151.150;2023-05-13T02:22:16;7.43;;;2.15;;
44046;SDS011;29713;-33.888;151.150;2023-05-13T02:24:44;4.07;;;1.63;;
44046;SDS011;29713;-33.888;151.150;2023-05-13T02:27:11;4.28;;;2.05;;
44046;SDS011;29713;-33.888;151.150;2023-05-13T02:29:41;4.68;;;2.05;;
44046;SDS011;29713;-33.888;151.150;2023-05-13T02:32:08;5.97;;;2.08;;
44046;SDS011;29713;-33.888;151.150;2023-05-13T02:34:35;5.72;;;1.92;;
44046;SDS011;29713;-33.888;151.150;2023-05-13T02:37:03;6.32;;;1.95;;
44046;SDS011;29713;-33.888;151.150;2023-05-13T02:39:30;3.97;;;1.63;;
44046;SDS011;29713;-33.888;151.150;2023-05-13T02:41:57;7.22;;;2.00;;
44046;SDS011;29713;-33.888;151.150;2023-05-13T02:44:25;6.60;;;2.15;;
44046;SDS011;29713;-33.888;151.150;2023-05-13T02:46:52;3.88;;;1.90;;
44046;SDS011;29713;-33.888;151.150;2023-05-13T02:49:19;4.53;;;2.08;;
44046;SDS011;29713;-33.888;151.150;2023-05-13T02:51:47;5.18;;;2.00;;
44046;SDS011;29713;-33.888;151.150;2023-05-13T02:54:14;5.38;;;1.77;;
44046;SDS011;29713;-33.888;151.150;2023-05-13T02:56:42;6.38;;;1.80;;
44046;SDS011;29713;-33.888;151.150;2023-05-13T02:59:09;8.30;;;2.10;;
44046;SDS011;29713;-33.888;151.150;2023-05-13T03:01:36;4.38;;;1.90;;
44046;SDS011;29713;-33.888;151.150;2023-05-13T03:04:04;7.20;;;2.10;;
44046;SDS011;29713;-33.888;151.150;2023-05-13T03:06:31;6.28;;;2.10;;
44046;SDS011;29713;-33.888;151.150;2023-05-13T03:08:58;4.35;;;2.30;;
44046;SDS011;29713;-33.888;151.150;2023-05-13T03:11:26;5.25;;;1.80;;
44046;SDS011;29713;-33.888;151.150;2023-05-13T03:13:53;4.50;;;1.98;;
44046;SDS011;29713;-33.888;151.150;2023-05-13T03:16:20;5.03;;;2.42;;
44046;SDS011;29713;-33.888;151.150;2023-05-13T03:18:48;8.70;;;2.30;;
44046;SDS011;29713;-33.888;151.150;2023-05-13T03:21:15;5.22;;;2.03;;
44046;SDS011;29713;-33.888;151.150;2023-05-13T03:23:42;8.32;;;2.20;;
44046;SDS011;29713;-33.888;151.150;2023-05-13T03:26:10;6.90;;;2.25;;
44046;SDS011;29713;-33.888;151.150;2023-05-13T03:28:37;4.32;;;1.85;;
44046;SDS011;29713;-33.888;151.150;2023-05-13T03:31:04;6.78;;;2.40;;
44046;SDS011;29713;-33.888;151.150;2023-05-13T03:33:32;3.63;;;1.98;;
44046;SDS011;29713;-33.888;151.150;2023-05-13T03:35:59;5.18;;;2.17;;
44046;SDS011;29713;-33.888;151.150;2023-05-13T03:38:26;3.70;;;1.92;;
44046;SDS011;29713;-33.888;151.150;2023-05-13T03:40:54;4.18;;;1.77;;
44046;SDS011;29713;-33.888;151.150;2023-05-13T03:43:21;4.97;;;1.70;;
44046;SDS011;29713;-33.888;151.150;2023-05-13T03:45:49;7.18;;;1.85;;
44046;SDS011;29713;-33.888;151.150;2023-05-13T03:48:16;5.97;;;2.10;;
44046;SDS011;29713;-33.888;151.150;2023-05-13T03:50:43;3.83;;;1.60;;
44046;SDS011;29713;-33.888;151.150;2023-05-13T03:53:11;4.07;;;1.50;;
44046;SDS011;29713;-33.888;151.150;2023-05-13T03:55:38;3.20;;;1.60;;
44046;SDS011;29713;-33.888;151.150;2023-05-13T03:58:12;4.13;;;1.42;;
44046;SDS011;29713;-33.888;151.150;2023-05-13T04:00:41;3.42;;;1.40;;
44046;SDS011;29713;-33.888;151.150;2023-05-13T04:03:11;4.35;;;1.55;;
44046;SDS011;29713;-33.888;151.150;2023-05-13T04:05:40;3.97;;;1.30;;
44046;SDS011;29713;-33.888;151.150;2023-05-13T04:08:08;2.50;;;1.48;;
44046;SDS011;29713;-33.888;151.150;2023-05-13T04:10:36;4.80;;;1.50;;
44046;SDS011;29713;-33.888;151.150;2023-05-13T04:13:03;3.20;;;1.55;;
44046;SDS011;29713;-33.888;151.150;2023-05-13T04:15:30;2.60;;;1.50;;
44046;SDS011;29713;-33.888;151.150;2023-05-13T04:17:58;6.90;;;2.17;;
44046;SDS011;29713;-33.888;151.150;2023-05-13T04:20:28;4.47;;;1.30;;
44046;SDS011;29713;-33.888;151.150;2023-05-13T04:22:56;5.47;;;1.58;;
44046;SDS011;29713;-33.888;151.150;2023-05-13T04:25:23;3.70;;;1.70;;
44046;SDS011;29713;-33.888;151.150;2023-05-13T04:27:50;4.82;;;1.80;;
44046;SDS011;29713;-33.888;151.150;2023-05-13T04:30:18;6.25;;;2.20;;
44046;SDS011;29713;-33.888;151.150;2023-05-13T04:32:45;2.70;;;1.60;;
44046;SDS011;29713;-33.888;151.150;2023-05-13T04:35:12;3.65;;;1.67;;
44046;SDS011;29713;-33.888;151.150;2023-05-13T04:37:40;4.22;;;1.58;;
44046;SDS011;29713;-33.888;151.150;2023-05-13T04:40:07;8.45;;;2.08;;
44046;SDS011;29713;-33.888;151.150;2023-05-13T04:42:35;6.72;;;1.70;;
44046;SDS011;29713;-33.888;151.150;2023-05-13T04:45:02;5.10;;;2.00;;
44046;SDS011;29713;-33.888;151.150;2023-05-13T04:47:30;3.70;;;1.60;;
44046;SDS011;29713;-33.888;151.150;2023-05-13T04:50:00;4.00;;;1.75;;
44046;SDS011;29713;-33.888;151.150;2023-05-13T04:52:28;5.05;;;1.67;;
44046;SDS011;29713;-33.888;151.150;2023-05-13T04:54:55;3.90;;;1.90;;
44046;SDS011;29713;-33.888;151.150;2023-05-13T04:57:23;3.75;;;1.75;;
44046;SDS011;29713;-33.888;151.150;2023-05-13T04:59:50;2.90;;;1.55;;
44046;SDS011;29713;-33.888;151.150;2023-05-13T05:02:17;4.65;;;1.65;;
44046;SDS011;29713;-33.888;151.150;2023-05-13T05:04:45;4.20;;;1.88;;
44046;SDS011;29713;-33.888;151.150;2023-05-13T05:07:13;5.13;;;2.40;;
44046;SDS011;29713;-33.888;151.150;2023-05-13T05:09:41;5.78;;;1.90;;
44046;SDS011;29713;-33.888;151.150;2023-05-13T05:12:08;4.15;;;1.83;;
44046;SDS011;29713;-33.888;151.150;2023-05-13T05:14:35;2.60;;;1.60;;
44046;SDS011;29713;-33.888;151.150;2023-05-13T05:17:03;4.95;;;1.92;;
44046;SDS011;29713;-33.888;151.150;2023-05-13T05:19:30;3.35;;;1.92;;
44046;SDS011;29713;-33.888;151.150;2023-05-13T05:21:57;4.57;;;2.15;;
44046;SDS011;29713;-33.888;151.150;2023-05-13T05:24:25;4.50;;;1.77;;
44046;SDS011;29713;-33.888;151.150;2023-05-13T05:26:52;6.28;;;2.30;;
44046;SDS011;29713;-33.888;151.150;2023-05-13T05:29:20;3.97;;;1.73;;
44046;SDS011;29713;-33.888;151.150;2023-05-13T05:31:47;5.13;;;1.90;;
44046;SDS011;29713;-33.888;151.150;2023-05-13T05:34:15;4.07;;;1.70;;
44046;SDS011;29713;-33.888;151.150;2023-05-13T05:36:42;5.78;;;2.05;;
44046;SDS011;29713;-33.888;151.150;2023-05-13T05:39:09;10.85;;;2.00;;
44046;SDS011;29713;-33.888;151.150;2023-05-13T05:41:37;5.88;;;2.10;;
44046;SDS011;29713;-33.888;151.150;2023-05-13T05:44:04;7.00;;;2.03;;
44046;SDS011;29713;-33.888;151.150;2023-05-13T05:46:32;5.05;;;1.83;;
44046;SDS011;29713;-33.888;151.150;2023-05-13T05:48:59;3.22;;;1.80;;
44046;SDS011;29713;-33.888;151.150;2023-05-13T05:51:28;3.45;;;1.90;;
44046;SDS011;29713;-33.888;151.150;2023-05-13T05:53:55;3.55;;;2.10;;
44046;SDS011;29713;-33.888;151.150;2023-05-13T05:56:22;4.47;;;1.60;;
44046;SDS011;29713;-33.888;151.150;2023-05-13T05:58:50;4.40;;;2.30;;
44046;SDS011;29713;-33.888;151.150;2023-05-13T06:01:17;4.68;;;1.63;;
44046;SDS011;29713;-33.888;151.150;2023-05-13T06:03:44;5.57;;;2.20;;
44046;SDS011;29713;-33.888;151.150;2023-05-13T06:06:12;3.50;;;1.60;;
44046;SDS011;29713;-33.888;151.150;2023-05-13T06:08:42;5.70;;;2.15;;
44046;SDS011;29713;-33.888;151.150;2023-05-13T06:11:09;4.30;;;1.77;;
44046;SDS011;29713;-33.888;151.150;2023-05-13T06:13:37;3.33;;;1.70;;
44046;SDS011;29713;-33.888;151.150;2023-05-13T06:16:04;3.38;;;1.75;;
44046;SDS011;29713;-33.888;151.150;2023-05-13T06:18:31;5.70;;;1.75;;
44046;SDS011;29713;-33.888;151.150;2023-05-13T06:20:59;2.80;;;1.63;;
44046;SDS011;29713;-33.888;151.150;2023-05-13T06:23:26;3.58;;;1.80;;
44046;SDS011;29713;-33.888;151.150;2023-05-13T06:25:53;5.00;;;1.73;;
44046;SDS011;29713;-33.888;151.150;2023-05-13T06:28:23;3.95;;;1.92;;
44046;SDS011;29713;-33.888;151.150;2023-05-13T06:30:50;6.47;;;1.67;;
44046;SDS011;29713;-33.888;151.150;2023-05-13T06:33:18;4.78;;;1.83;;
44046;SDS011;29713;-33.888;151.150;2023-05-13T06:35:46;4.15;;;1.80;;
44046;SDS011;29713;-33.888;151.150;2023-05-13T06:38:14;4.65;;;1.88;;
44046;SDS011;29713;-33.888;151.150;2023-05-13T06:40:44;3.95;;;1.55;;
44046;SDS011;29713;-33.888;151.150;2023-05-13T06:43:12;2.47;;;1.70;;
44046;SDS011;29713;-33.888;151.150;2023-05-13T06:45:41;4.13;;;1.80;;
44046;SDS011;29713;-33.888;151.150;2023-05-13T06:48:08;3.97;;;1.73;;
44046;SDS011;29713;-33.888;151.150;2023-05-13T06:50:35;3.40;;;1.65;;
44046;SDS011;29713;-33.888;151.150;2023-05-13T06:53:03;3.50;;;1.95;;
44046;SDS011;29713;-33.888;151.150;2023-05-13T06:55:30;6.22;;;1.80;;
44046;SDS011;29713;-33.888;151.150;2023-05-13T06:58:00;3.33;;;1.45;;
44046;SDS011;29713;-33.888;151.150;2023-05-13T07:00:27;3.75;;;1.65;;
44046;SDS011;29713;-33.888;151.150;2023-05-13T07:02:55;5.72;;;1.90;;
44046;SDS011;29713;-33.888;151.150;2023-05-13T07:05:22;3.63;;;1.88;;
44046;SDS011;29713;-33.888;151.150;2023-05-13T07:07:51;6.40;;;1.90;;
44046;SDS011;29713;-33.888;151.150;2023-05-13T07:10:18;6.93;;;2.20;;
44046;SDS011;29713;-33.888;151.150;2023-05-13T07:12:46;2.47;;;1.67;;
44046;SDS011;29713;-33.888;151.150;2023-05-13T07:15:13;6.90;;;2.10;;
44046;SDS011;29713;-33.888;151.150;2023-05-13T07:17:41;3.05;;;1.98;;
44046;SDS011;29713;-33.888;151.150;2023-05-13T07:20:08;3.60;;;1.50;;
44046;SDS011;29713;-33.888;151.150;2023-05-13T07:22:36;5.35;;;2.17;;
44046;SDS011;29713;-33.888;151.150;2023-05-13T07:25:03;5.43;;;2.08;;
44046;SDS011;29713;-33.888;151.150;2023-05-13T07:27:31;4.75;;;2.58;;
44046;SDS011;29713;-33.888;151.150;2023-05-13T07:29:58;1.92;;;1.65;;
44046;SDS011;29713;-33.888;151.150;2023-05-13T07:32:26;4.75;;;1.60;;
44046;SDS011;29713;-33.888;151.150;2023-05-13T07:34:55;3.72;;;1.95;;
44046;SDS011;29713;-33.888;151.150;2023-05-13T07:37:22;3.30;;;2.05;;
44046;SDS011;29713;-33.888;151.150;2023-05-13T07:39:49;5.95;;;2.08;;
44046;SDS011;29713;-33.888;151.150;2023-05-13T07:42:18;4.82;;;2.13;;
44046;SDS011;29713;-33.888;151.150;2023-05-13T07:44:45;6.68;;;2.92;;
44046;SDS011;29713;-33.888;151.150;2023-05-13T07:47:12;5.95;;;2.33;;
44046;SDS011;29713;-33.888;151.150;2023-05-13T07:49:40;4.45;;;2.50;;
44046;SDS011;29713;-33.888;151.150;2023-05-13T07:52:07;6.30;;;2.33;;
44046;SDS011;29713;-33.888;151.150;2023-05-13T07:54:34;6.43;;;2.83;;
44046;SDS011;29713;-33.888;151.150;2023-05-13T07:57:02;4.68;;;2.58;;
44046;SDS011;29713;-33.888;151.150;2023-05-13T07:59:29;6.45;;;3.03;;
44046;SDS011;29713;-33.888;151.150;2023-05-13T08:01:56;5.85;;;3.00;;
44046;SDS011;29713;-33.888;151.150;2023-05-13T08:04:24;7.68;;;3.13;;
44046;SDS011;29713;-33.888;151.150;2023-05-13T08:06:51;3.88;;;2.50;;
44046;SDS011;29713;-33.888;151.150;2023-05-13T08:09:18;5.53;;;2.70;;
44046;SDS011;29713;-33.888;151.150;2023-05-13T08:11:49;6.55;;;2.80;;
44046;SDS011;29713;-33.888;151.150;2023-05-13T08:14:16;6.13;;;3.15;;
44046;SDS011;29713;-33.888;151.150;2023-05-13T08:16:43;5.40;;;2.80;;
44046;SDS011;29713;-33.888;151.150;2023-05-13T08:19:14;5.53;;;3.15;;
44046;SDS011;29713;-33.888;151.150;2023-05-13T08:21:41;5.57;;;3.42;;
44046;SDS011;29713;-33.888;151.150;2023-05-13T08:24:09;5.03;;;3.47;;
44046;SDS011;29713;-33.888;151.150;2023-05-13T08:26:36;8.02;;;3.35;;
44046;SDS011;29713;-33.888;151.150;2023-05-13T08:29:04;4.70;;;3.10;;
44046;SDS011;29713;-33.888;151.150;2023-05-13T08:31:32;6.47;;;3.47;;
44046;SDS011;29713;-33.888;151.150;2023-05-13T08:33:59;4.97;;;3.22;;
44046;SDS011;29713;-33.888;151.150;2023-05-13T08:36:26;7.40;;;3.05;;
44046;SDS011;29713;-33.888;151.150;2023-05-13T08:38:54;5.68;;;2.70;;
44046;SDS011;29713;-33.888;151.150;2023-05-13T08:41:21;9.77;;;3.33;;
44046;SDS011;29713;-33.888;151.150;2023-05-13T08:43:48;8.02;;;3.25;;
44046;SDS011;29713;-33.888;151.150;2023-05-13T08:46:17;6.47;;;3.22;;
44046;SDS011;29713;-33.888;151.150;2023-05-13T08:48:44;6.82;;;3.25;;
44046;SDS011;29713;-33.888;151.150;2023-05-13T08:51:12;8.35;;;3.42;;
44046;SDS011;29713;-33.888;151.150;2023-05-13T08:53:40;6.82;;;3.08;;
44046;SDS011;29713;-33.888;151.150;2023-05-13T08:56:09;6.18;;;3.00;;
44046;SDS011;29713;-33.888;151.150;2023-05-13T08:58:36;5.45;;;3.17;;
44046;SDS011;29713;-33.888;151.150;2023-05-13T09:01:04;7.68;;;3.20;;
44046;SDS011;29713;-33.888;151.150;2023-05-13T09:03:34;6.78;;;3.30;;
44046;SDS011;29713;-33.888;151.150;2023-05-13T09:06:04;7.38;;;3.38;;
44046;SDS011;29713;-33.888;151.150;2023-05-13T09:08:32;5.55;;;3.28;;
44046;SDS011;29713;-33.888;151.150;2023-05-13T09:10:59;7.28;;;3.47;;
44046;SDS011;29713;-33.888;151.150;2023-05-13T09:13:27;5.18;;;3.53;;
44046;SDS011;29713;-33.888;151.150;2023-05-13T09:15:54;10.13;;;3.95;;
44046;SDS011;29713;-33.888;151.150;2023-05-13T09:18:27;6.20;;;3.50;;
44046;SDS011;29713;-33.888;151.150;2023-05-13T09:21:15;6.85;;;4.20;;
44046;SDS011;29713;-33.888;151.150;2023-05-13T09:23:49;8.43;;;4.03;;
44046;SDS011;29713;-33.888;151.150;2023-05-13T09:26:28;8.77;;;4.40;;
44046;SDS011;29713;-33.888;151.150;2023-05-13T09:29:14;10.45;;;5.13;;
44046;SDS011;29713;-33.888;151.150;2023-05-13T09:31:44;7.95;;;5.35;;
44046;SDS011;29713;-33.888;151.150;2023-05-13T09:34:26;12.30;;;5.60;;
44046;SDS011;29713;-33.888;151.150;2023-05-13T09:37:07;9.45;;;3.72;;
44046;SDS011;29713;-33.888;151.150;2023-05-13T09:39:38;13.35;;;3.50;;
44046;SDS011;29713;-33.888;151.150;2023-05-13T09:42:16;8.00;;;3.85;;
44046;SDS011;29713;-33.888;151.150;2023-05-13T09:44:44;10.75;;;3.72;;
44046;SDS011;29713;-33.888;151.150;2023-05-13T09:47:12;7.00;;;3.40;;
44046;SDS011;29713;-33.888;151.150;2023-05-13T09:49:42;7.40;;;3.70;;
44046;SDS011;29713;-33.888;151.150;2023-05-13T09:52:10;9.65;;;3.92;;
44046;SDS011;29713;-33.888;151.150;2023-05-13T09:54:41;8.88;;;3.58;;
44046;SDS011;29713;-33.888;151.150;2023-05-13T09:57:11;6.47;;;3.33;;
44046;SDS011;29713;-33.888;151.150;2023-05-13T09:59:40;9.23;;;3.70;;
44046;SDS011;29713;-33.888;151.150;2023-05-13T10:02:07;8.23;;;3.72;;
44046;SDS011;29713;-33.888;151.150;2023-05-13T10:04:38;5.80;;;3.85;;
44046;SDS011;29713;-33.888;151.150;2023-05-13T10:07:05;7.15;;;3.60;;
44046;SDS011;29713;-33.888;151.150;2023-05-13T10:09:35;9.05;;;4.07;;
44046;SDS011;29713;-33.888;151.150;2023-05-13T10:12:05;8.02;;;4.35;;
44046;SDS011;29713;-33.888;151.150;2023-05-13T10:14:37;11.75;;;4.60;;
44046;SDS011;29713;-33.888;151.150;2023-05-13T10:17:05;12.15;;;4.60;;
44046;SDS011;29713;-33.888;151.150;2023-05-13T10:19:34;8.10;;;4.22;;
44046;SDS011;29713;-33.888;151.150;2023-05-13T10:22:01;9.32;;;5.00;;
44046;SDS011;29713;-33.888;151.150;2023-05-13T10:24:29;7.75;;;4.57;;
44046;SDS011;29713;-33.888;151.150;2023-05-13T10:26:58;6.28;;;4.32;;
44046;SDS011;29713;-33.888;151.150;2023-05-13T10:29:27;6.60;;;4.63;;
44046;SDS011;29713;-33.888;151.150;2023-05-13T10:31:55;8.05;;;4.50;;
44046;SDS011;29713;-33.888;151.150;2023-05-13T10:34:23;7.38;;;4.65;;
44046;SDS011;29713;-33.888;151.150;2023-05-13T10:36:59;7.05;;;4.55;;
44046;SDS011;29713;-33.888;151.150;2023-05-13T10:43:46;10.20;;;5.15;;
44046;SDS011;29713;-33.888;151.150;2023-05-13T10:45:47;10.52;;;4.78;;
44046;SDS011;29713;-33.888;151.150;2023-05-13T10:48:17;7.18;;;4.30;;
44046;SDS011;29713;-33.888;151.150;2023-05-13T10:53:43;8.93;;;5.25;;
44046;SDS011;29713;-33.888;151.150;2023-05-13T10:56:13;9.27;;;5.40;;
44046;SDS011;29713;-33.888;151.150;2023-05-13T10:58:41;8.63;;;5.00;;
44046;SDS011;29713;-33.888;151.150;2023-05-13T11:04:14;9.77;;;6.13;;
44046;SDS011;29713;-33.888;151.150;2023-05-13T11:06:43;10.77;;;5.97;;
44046;SDS011;29713;-33.888;151.150;2023-05-13T11:09:12;8.43;;;5.78;;
44046;SDS011;29713;-33.888;151.150;2023-05-13T11:11:54;10.57;;;5.65;;
44046;SDS011;29713;-33.888;151.150;2023-05-13T11:14:24;10.70;;;6.03;;
44046;SDS011;29713;-33.888;151.150;2023-05-13T11:19:29;9.95;;;6.32;;
44046;SDS011;29713;-33.888;151.150;2023-05-13T11:22:11;9.48;;;6.45;;
44046;SDS011;29713;-33.888;151.150;2023-05-13T11:24:45;11.23;;;6.70;;
44046;SDS011;29713;-33.888;151.150;2023-05-13T11:27:37;10.73;;;6.68;;
44046;SDS011;29713;-33.888;151.150;2023-05-13T11:30:27;10.40;;;6.53;;
44046;SDS011;29713;-33.888;151.150;2023-05-13T11:32:58;10.95;;;6.70;;
44046;SDS011;29713;-33.888;151.150;2023-05-13T11:35:30;12.07;;;6.63;;
44046;SDS011;29713;-33.888;151.150;2023-05-13T11:37:59;8.35;;;6.65;;
44046;SDS011;29713;-33.888;151.150;2023-05-13T11:40:31;13.25;;;7.28;;
44046;SDS011;29713;-33.888;151.150;2023-05-13T11:43:00;16.58;;;10.30;;
44046;SDS011;29713;-33.888;151.150;2023-05-13T11:45:31;13.57;;;8.13;;
44046;SDS011;29713;-33.888;151.150;2023-05-13T11:48:19;14.02;;;8.40;;
44046;SDS011;29713;-33.888;151.150;2023-05-13T11:50:50;11.80;;;8.20;;
44046;SDS011;29713;-33.888;151.150;2023-05-13T11:53:20;13.60;;;8.85;;
44046;SDS011;29713;-33.888;151.150;2023-05-13T11:55:48;14.60;;;8.82;;
44046;SDS011;29713;-33.888;151.150;2023-05-13T11:58:16;17.90;;;8.48;;
44046;SDS011;29713;-33.888;151.150;2023-05-13T12:00:45;14.95;;;7.78;;
44046;SDS011;29713;-33.888;151.150;2023-05-13T12:03:13;12.70;;;7.10;;
44046;SDS011;29713;-33.888;151.150;2023-05-13T12:05:41;11.85;;;7.63;;
44046;SDS011;29713;-33.888;151.150;2023-05-13T12:08:11;11.38;;;7.10;;
44046;SDS011;29713;-33.888;151.150;2023-05-13T12:10:41;14.32;;;7.50;;
44046;SDS011;29713;-33.888;151.150;2023-05-13T12:13:09;10.60;;;7.13;;
44046;SDS011;29713;-33.888;151.150;2023-05-13T12:15:37;12.25;;;8.07;;
44046;SDS011;29713;-33.888;151.150;2023-05-13T12:18:05;10.57;;;7.15;;
44046;SDS011;29713;-33.888;151.150;2023-05-13T12:20:33;9.63;;;6.93;;
44046;SDS011;29713;-33.888;151.150;2023-05-13T12:23:00;15.45;;;7.57;;
44046;SDS011;29713;-33.888;151.150;2023-05-13T12:28:16;8.60;;;6.57;;
44046;SDS011;29713;-33.888;151.150;2023-05-13T12:30:49;12.80;;;8.07;;
44046;SDS011;29713;-33.888;151.150;2023-05-13T12:33:27;12.23;;;7.22;;
44046;SDS011;29713;-33.888;151.150;2023-05-13T12:38:58;13.17;;;7.07;;
44046;SDS011;29713;-33.888;151.150;2023-05-13T12:41:37;13.23;;;7.63;;
44046;SDS011;29713;-33.888;151.150;2023-05-13T12:44:13;11.40;;;7.73;;
44046;SDS011;29713;-33.888;151.150;2023-05-13T12:46:49;16.83;;;10.13;;
44046;SDS011;29713;-33.888;151.150;2023-05-13T12:49:18;14.83;;;8.87;;
44046;SDS011;29713;-33.888;151.150;2023-05-13T12:51:45;11.17;;;8.43;;
44046;SDS011;29713;-33.888;151.150;2023-05-13T12:54:12;13.17;;;7.73;;
44046;SDS011;29713;-33.888;151.150;2023-05-13T12:56:40;13.02;;;7.85;;
44046;SDS011;29713;-33.888;151.150;2023-05-13T12:59:07;9.95;;;7.28;;
44046;SDS011;29713;-33.888;151.150;2023-05-13T13:01:35;13.40;;;7.80;;
44046;SDS011;29713;-33.888;151.150;2023-05-13T13:04:02;11.73;;;7.83;;
44046;SDS011;29713;-33.888;151.150;2023-05-13T13:06:30;10.37;;;7.43;;
44046;SDS011;29713;-33.888;151.150;2023-05-13T13:08:58;12.85;;;7.82;;
44046;SDS011;29713;-33.888;151.150;2023-05-13T13:11:25;10.50;;;7.53;;
44046;SDS011;29713;-33.888;151.150;2023-05-13T13:13:53;9.43;;;7.00;;
44046;SDS011;29713;-33.888;151.150;2023-05-13T13:16:20;9.03;;;6.90;;
44046;SDS011;29713;-33.888;151.150;2023-05-13T13:18:47;9.47;;;6.77;;
44046;SDS011;29713;-33.888;151.150;2023-05-13T13:21:16;10.47;;;6.90;;
44046;SDS011;29713;-33.888;151.150;2023-05-13T13:23:43;13.17;;;7.50;;
44046;SDS011;29713;-33.888;151.150;2023-05-13T13:26:10;14.17;;;8.13;;
44046;SDS011;29713;-33.888;151.150;2023-05-13T13:28:38;11.73;;;6.47;;
44046;SDS011;29713;-33.888;151.150;2023-05-13T13:31:05;8.83;;;6.20;;
44046;SDS011;29713;-33.888;151.150;2023-05-13T13:33:32;11.17;;;6.60;;
44046;SDS011;29713;-33.888;151.150;2023-05-13T13:36:00;10.10;;;6.60;;
44046;SDS011;29713;-33.888;151.150;2023-05-13T13:38:27;10.00;;;6.97;;
44046;SDS011;29713;-33.888;151.150;2023-05-13T13:40:54;9.70;;;7.23;;
44046;SDS011;29713;-33.888;151.150;2023-05-13T13:43:22;12.50;;;7.23;;
44046;SDS011;29713;-33.888;151.150;2023-05-13T13:45:49;9.30;;;6.63;;
44046;SDS011;29713;-33.888;151.150;2023-05-13T13:48:17;11.37;;;7.60;;
44046;SDS011;29713;-33.888;151.150;2023-05-13T13:50:46;12.50;;;6.60;;
44046;SDS011;29713;-33.888;151.150;2023-05-13T13:53:13;10.43;;;6.17;;
44046;SDS011;29713;-33.888;151.150;2023-05-13T13:55:41;8.00;;;5.70;;
44046;SDS011;29713;-33.888;151.150;2023-05-13T13:58:08;9.93;;;6.20;;
44046;SDS011;29713;-33.888;151.150;2023-05-13T14:00:35;9.17;;;5.10;;
44046;SDS011;29713;-33.888;151.150;2023-05-13T14:03:03;7.50;;;5.57;;
44046;SDS011;29713;-33.888;151.150;2023-05-13T14:05:30;8.67;;;5.57;;
44046;SDS011;29713;-33.888;151.150;2023-05-13T14:07:57;8.87;;;6.17;;
44046;SDS011;29713;-33.888;151.150;2023-05-13T14:10:25;8.53;;;6.30;;
44046;SDS011;29713;-33.888;151.150;2023-05-13T14:12:52;10.77;;;7.90;;
44046;SDS011;29713;-33.888;151.150;2023-05-13T14:15:20;10.33;;;8.30;;
44046;SDS011;29713;-33.888;151.150;2023-05-13T14:17:48;11.30;;;8.20;;
44046;SDS011;29713;-33.888;151.150;2023-05-13T14:20:16;12.23;;;7.37;;
44046;SDS011;29713;-33.888;151.150;2023-05-13T14:22:43;9.90;;;6.17;;
44046;SDS011;29713;-33.888;151.150;2023-05-13T14:25:10;11.20;;;5.53;;
44046;SDS011;29713;-33.888;151.150;2023-05-13T14:27:38;10.40;;;5.50;;
44046;SDS011;29713;-33.888;151.150;2023-05-13T14:30:06;7.17;;;5.30;;
44046;SDS011;29713;-33.888;151.150;2023-05-13T14:32:34;6.27;;;5.13;;
44046;SDS011;29713;-33.888;151.150;2023-05-13T14:35:01;7.90;;;5.60;;
44046;SDS011;29713;-33.888;151.150;2023-05-13T14:37:28;8.70;;;5.33;;
44046;SDS011;29713;-33.888;151.150;2023-05-13T14:39:56;9.07;;;5.87;;